Main page
METAR-TAF:

METAR-TAF

Airports :

N'Djamena International Airport

N'Djamena, Chad

latitude: 12-08N, longitude: 015-02E, elevation: 295 m

Current weather observation

The report was made 1 hour and 2 minutes ago, at 17:00 UTC
Wind 5 kt from the North
Temperature 28°C
Humidity 9%
Pressure 1011 hPa
Visibility: 6000 m

METAR: FTTJ 271700Z 35005KT 6000 NSC 28/M08 Q1011 BECMG 4000 DU

Time: 19:02 (18:02 UTC)

Forecast

The report was made 1 hour and 2 minutes ago, at 17:00 UTC
Forecast valid from 27 at 18 UTC to 28 at 24 UTC
Wind 5 kt from the North/Northwest
Visibility: 7000 m
Temporary
from 28 at 06 UTC to 28 at 10 UTC
Visibility: 4000 m
haze
Temporary
from 28 at 15 UTC to 28 at 21 UTC
Visibility: 4000 m
widespread dust

TAF: FTTJ 271700Z 2718/2824 34005KT 7000 NSC TEMPO 2806/2810 4000 HZ TEMPO 2815/2821 4000 DU

Weather observations and forecasts of more than 4000 airports (METAR and TAF reports).

The available stations are represented by yellow and red dots on the map.

Hover mouse over dot to see the name of the station.

Then click to see weather observations and forecasts.

To change the map : click on the green buttons with a black cross to zoom in, on the green button with a dash to zoom out, or on the green arrows for adjacent maps.


METAR-TAF: